Time;durP1;ratioP1;P1;durP2;ratioP2;P2;SDS_P1;SDS_P2;PMS_P1;PMS_P2;Temp;Humidity;BMP_temperature;BMP_pressure;BME280_temperature;BME280_humidity;BME280_pressure;Samples;Min_cycle;Max_cycle;Signal;HPM_P1;HPM_P2
2023/12/01 00:02:24;;;;;;;17.75;4.93;;;-0.40;99.90;;;;;;5015094;28;20022;-76
2023/12/01 00:04:49;;;;;;;17.27;4.53;;;-0.40;99.90;;;;;;5014594;28;20022;-76
2023/12/01 00:07:15;;;;;;;16.15;4.82;;;-0.40;99.90;;;;;;5015193;28;20025;-76
2023/12/01 00:09:41;;;;;;;15.88;4.85;;;-0.40;99.90;;;;;;5014351;28;20030;-76
2023/12/01 00:12:07;;;;;;;18.67;4.65;;;0.50;99.90;;;;;;5013401;28;20049;-76
2023/12/01 00:14:33;;;;;;;19.63;5.68;;;-0.40;99.90;;;;;;5014769;28;20029;-76
2023/12/01 00:16:59;;;;;;;18.20;4.63;;;-0.40;99.90;;;;;;5013652;28;20045;-76
2023/12/01 00:19:24;;;;;;;18.25;4.68;;;-0.30;99.90;;;;;;5014604;28;20022;-76
2023/12/01 00:21:50;;;;;;;19.95;5.43;;;-0.40;99.90;;;;;;5014641;28;20033;-76
2023/12/01 00:24:16;;;;;;;19.05;5.25;;;-0.40;99.90;;;;;;5014351;28;20018;-76
2023/12/01 00:26:42;;;;;;;18.15;5.55;;;-0.30;99.90;;;;;;5013354;28;20017;-76
2023/12/01 00:29:07;;;;;;;17.40;5.35;;;-0.30;99.90;;;;;;5013150;28;20034;-76
2023/12/01 00:31:33;;;;;;;17.20;4.82;;;-0.30;99.90;;;;;;5014472;28;20485;-76
2023/12/01 00:33:59;;;;;;;16.83;4.65;;;-0.30;99.90;;;;;;5015296;28;20083;-76
2023/12/01 00:36:25;;;;;;;19.30;4.90;;;-0.30;99.90;;;;;;5017027;28;20124;-76
2023/12/01 00:38:51;;;;;;;21.10;5.93;;;-0.30;99.90;;;;;;5018545;28;20552;-76
2023/12/01 00:41:17;;;;;;;27.75;6.30;;;-0.30;99.90;;;;;;5017121;28;20036;-76
2023/12/01 00:43:42;;;;;;;25.73;6.38;;;-0.30;99.90;;;;;;5018513;28;20392;-76
2023/12/01 00:46:08;;;;;;;31.33;7.05;;;-0.20;99.90;;;;;;5016761;28;20553;-76
2023/12/01 00:48:33;;;;;;;24.10;6.72;;;-0.30;99.90;;;;;;5018600;28;20101;-76
2023/12/01 00:50:59;;;;;;;28.63;8.15;;;-0.30;99.90;;;;;;5016823;28;20205;-76
2023/12/01 00:53:25;;;;;;;35.55;8.48;;;-0.20;99.90;;;;;;5016577;28;20030;-76
2023/12/01 00:55:50;;;;;;;35.50;8.38;;;-0.20;99.90;;;;;;5016320;28;20501;-76
2023/12/01 00:58:16;;;;;;;31.00;7.80;;;-0.20;99.90;;;;;;5018017;28;20547;-76
2023/12/01 01:00:42;;;;;;;30.10;8.27;;;-0.20;99.90;;;;;;5015899;28;20022;-76
2023/12/01 01:03:08;;;;;;;39.40;9.95;;;-0.20;99.90;;;;;;5016606;28;20021;-76
2023/12/01 01:05:33;;;;;;;31.05;9.98;;;-0.30;99.90;;;;;;5016816;28;20485;-76
2023/12/01 01:07:59;;;;;;;28.08;7.82;;;-0.30;99.90;;;;;;5018366;28;20030;-76
2023/12/01 01:10:24;;;;;;;28.38;7.80;;;-0.30;99.90;;;;;;5017232;28;20493;-76
2023/12/01 01:12:51;;;;;;;32.30;8.95;;;-0.30;99.90;;;;;;5016459;28;20392;-76
2023/12/01 01:15:17;;;;;;;33.78;8.98;;;;;;;;;;5016524;28;20028;-76
2023/12/01 01:17:42;;;;;;;30.55;7.88;;;-0.30;99.90;;;;;;5017760;28;20537;-76
2023/12/01 01:20:10;;;;;;;33.20;9.32;;;-0.40;99.90;;;;;;5017403;28;20026;-78
2023/12/01 01:22:35;;;;;;;26.20;6.97;;;-0.30;99.90;;;;;;5015658;28;20022;-78
2023/12/01 01:25:01;;;;;;;25.10;6.75;;;-0.30;99.90;;;;;;5016393;28;20080;-78
2023/12/01 01:27:26;;;;;;;27.45;7.95;;;-0.30;99.90;;;;;;5016463;28;20110;-78
2023/12/01 01:29:52;;;;;;;31.13;8.55;;;-0.30;99.90;;;;;;5015894;28;20033;-78
2023/12/01 01:32:17;;;;;;;23.70;7.20;;;-0.40;99.90;;;;;;5017022;28;20393;-78
2023/12/01 01:34:43;;;;;;;26.38;7.65;;;-0.40;99.90;;;;;;5017183;28;20034;-78
2023/12/01 01:37:09;;;;;;;27.13;8.73;;;;;;;;;;5017720;28;20022;-78
2023/12/01 01:39:34;;;;;;;23.45;7.18;;;-0.30;99.90;;;;;;5032622;28;20089;-78
2023/12/01 01:42:00;;;;;;;27.02;8.88;;;-0.30;99.90;;;;;;5015802;28;20052;-78
2023/12/01 01:44:26;;;;;;;25.27;7.55;;;-0.30;99.90;;;;;;5017381;28;20022;-78
2023/12/01 01:46:54;;;;;;;30.55;8.48;;;-0.20;99.90;;;;;;5015914;28;20050;-78
2023/12/01 01:49:25;;;;;;;31.10;8.85;;;-0.20;99.90;;;;;;5015459;28;20022;-78
2023/12/01 01:51:53;;;;;;;27.60;8.25;;;-0.20;99.90;;;;;;5016351;28;20030;-78
2023/12/01 01:54:22;;;;;;;23.80;7.40;;;-0.20;99.90;;;;;;5016873;28;20050;-78
2023/12/01 01:56:48;;;;;;;26.00;7.88;;;-0.20;99.90;;;;;;5015835;28;20080;-78
2023/12/01 01:59:13;;;;;;;26.90;8.57;;;-0.20;99.90;;;;;;5017071;28;20512;-78
2023/12/01 02:01:39;;;;;;;23.60;6.78;;;-0.20;99.90;;;;;;5016896;28;20022;-78
2023/12/01 02:04:07;;;;;;;24.52;7.22;;;-0.10;99.90;;;;;;5015679;28;20030;-78
2023/12/01 02:06:37;;;;;;;26.02;7.72;;;-0.20;99.90;;;;;;5015501;28;20018;-78
2023/12/01 02:09:03;;;;;;;23.58;7.03;;;-0.10;99.90;;;;;;5016627;28;20041;-78
2023/12/01 02:11:28;;;;;;;24.50;6.85;;;-0.10;99.90;;;;;;5016490;28;20046;-78
2023/12/01 02:13:54;;;;;;;21.92;5.85;;;-0.10;99.90;;;;;;5016519;28;20033;-78
2023/12/01 02:16:20;;;;;;;21.35;6.70;;;-0.20;99.90;;;;;;5015483;28;20103;-78
2023/12/01 02:18:45;;;;;;;24.65;6.50;;;-0.20;99.90;;;;;;5016538;28;20038;-78
2023/12/01 02:21:11;;;;;;;24.75;6.47;;;-0.20;99.90;;;;;;5015217;28;20022;-78
2023/12/01 02:23:37;;;;;;;20.67;6.43;;;-0.20;99.90;;;;;;5014635;28;20021;-78
2023/12/01 02:26:03;;;;;;;20.08;6.00;;;-0.10;99.90;;;;;;5016329;28;20037;-78
2023/12/01 02:28:29;;;;;;;21.17;5.93;;;-0.10;99.90;;;;;;5014725;28;20049;-78
2023/12/01 02:30:56;;;;;;;22.60;6.57;;;-0.10;99.90;;;;;;5014848;28;20030;-78
2023/12/01 02:33:23;;;;;;;22.75;5.50;;;-0.10;99.90;;;;;;5016390;28;20334;-77
2023/12/01 02:35:50;;;;;;;24.98;6.78;;;-0.10;99.90;;;;;;5014780;28;20038;-78
2023/12/01 02:38:16;;;;;;;23.20;6.38;;;-0.10;99.90;;;;;;5015928;28;20389;-78
2023/12/01 02:40:43;;;;;;;19.38;5.32;;;-0.10;99.90;;;;;;5015625;28;20025;-78
2023/12/01 02:43:12;;;;;;;24.98;6.78;;;-0.10;99.90;;;;;;5014894;28;20026;-77
2023/12/01 02:45:37;;;;;;;;;;;0.00;99.90;;;;;;5015900;28;20389;-78
2023/12/01 02:48:04;;;;;;;18.85;5.70;;;0.00;99.90;;;;;;5014719;28;19917;-78
2023/12/01 02:50:31;;;;;;;21.48;5.78;;;-0.10;99.90;;;;;;5015641;28;20042;-78
2023/12/01 02:52:57;;;;;;;19.38;5.10;;;0.00;99.90;;;;;;5015018;28;20025;-78
2023/12/01 02:55:22;;;;;;;19.50;6.20;;;-0.10;99.90;;;;;;5015509;28;20026;-78
2023/12/01 02:57:48;;;;;;;23.33;5.55;;;0.00;99.90;;;;;;5014290;28;20030;-78
2023/12/01 03:00:14;;;;;;;25.27;6.25;;;0.00;99.90;;;;;;5015290;28;20060;-78
2023/12/01 03:02:44;;;;;;;22.83;5.60;;;0.00;99.90;;;;;;5014632;28;20022;-78
2023/12/01 03:05:10;;;;;;;21.00;6.05;;;0.00;99.90;;;;;;5015206;28;20022;-78
2023/12/01 03:07:40;;;;;;;20.27;5.55;;;-0.10;99.90;;;;;;5014135;28;20446;-78
2023/12/01 03:10:10;;;;;;;23.38;5.68;;;-0.10;99.90;;;;;;5015701;28;20030;-78
2023/12/01 03:12:37;;;;;;;20.88;5.82;;;0.00;99.90;;;;;;5030536;28;20052;-78
2023/12/01 03:15:04;;;;;;;22.08;5.97;;;0.00;99.90;;;;;;5014951;28;20025;-78
2023/12/01 03:17:30;;;;;;;20.73;6.25;;;0.00;99.90;;;;;;5013626;28;20014;-78
2023/12/01 03:19:56;;;;;;;21.63;6.30;;;0.00;99.90;;;;;;5015146;28;20029;-78
2023/12/01 03:22:21;;;;;;;22.55;6.15;;;0.00;99.90;;;;;;5015468;28;20037;-78
2023/12/01 03:24:47;;;;;;;22.05;6.18;;;0.00;99.90;;;;;;5014386;28;20145;-78
2023/12/01 03:27:14;;;;;;;24.58;6.97;;;0.00;99.90;;;;;;5014136;28;20022;-78
2023/12/01 03:29:40;;;;;;;24.92;6.90;;;0.00;99.90;;;;;;5029877;28;20018;-78
2023/12/01 03:32:06;;;;;;;27.42;6.65;;;0.00;99.90;;;;;;5014974;28;20112;-77
2023/12/01 03:34:32;;;;;;;23.60;6.53;;;0.00;99.90;;;;;;5030411;28;20022;-78
2023/12/01 03:36:57;;;;;;;21.00;5.90;;;0.00;99.90;;;;;;5013778;28;20026;-78
2023/12/01 03:39:23;;;;;;;23.65;7.10;;;0.00;99.90;;;;;;5015504;28;20022;-79
2023/12/01 03:41:49;;;;;;;26.35;6.97;;;0.10;99.90;;;;;;5014337;28;20076;-79
2023/12/01 03:44:15;;;;;;;26.23;6.40;;;0.10;99.90;;;;;;5014449;28;20394;-79
2023/12/01 03:46:40;;;;;;;26.80;8.18;;;0.10;99.90;;;;;;5014228;28;20025;-79
2023/12/01 03:49:06;;;;;;;27.48;6.93;;;0.10;99.90;;;;;;5013912;28;20125;-79
2023/12/01 03:51:32;;;;;;;27.88;7.35;;;0.10;99.90;;;;;;5015163;28;20026;-79
2023/12/01 03:53:57;;;;;;;27.02;7.40;;;0.10;99.90;;;;;;5013278;28;20038;-79
2023/12/01 03:56:23;;;;;;;28.65;7.28;;;;;;;;;;5014213;28;20164;-79
2023/12/01 03:58:54;;;;;;;26.33;7.45;;;0.20;99.90;;;;;;5029945;28;20030;-79
2023/12/01 04:01:20;;;;;;;33.70;7.75;;;0.20;99.90;;;;;;5014077;28;20034;-79
2023/12/01 04:03:45;;;;;;;31.17;8.80;;;0.20;99.90;;;;;;5015760;28;20014;-79
2023/12/01 04:06:11;;;;;;;30.55;7.47;;;0.20;99.90;;;;;;5015404;28;20022;-78
2023/12/01 04:08:36;;;;;;;26.70;6.95;;;0.20;99.90;;;;;;5013547;28;20022;-78
2023/12/01 04:11:02;;;;;;;22.58;6.80;;;0.20;99.90;;;;;;5018670;28;20041;-78
2023/12/01 04:13:27;;;;;;;29.45;7.40;;;0.20;99.90;;;;;;5018425;28;20030;-78
2023/12/01 04:15:53;;;;;;;29.02;7.45;;;0.20;99.90;;;;;;5017347;28;20045;-78
2023/12/01 04:18:18;;;;;;;27.25;7.07;;;0.20;99.90;;;;;;5017491;28;20041;-78
2023/12/01 04:20:44;;;;;;;26.92;6.20;;;0.20;99.90;;;;;;5017209;28;20548;-78
2023/12/01 04:23:11;;;;;;;29.63;8.05;;;0.20;99.90;;;;;;5018080;28;20030;-78
2023/12/01 04:25:45;;;;;;;27.35;7.50;;;0.20;99.90;;;;;;5017227;28;20046;-78
2023/12/01 04:28:10;;;;;;;25.23;7.47;;;0.20;99.90;;;;;;5018600;28;20436;-78
2023/12/01 04:30:36;;;;;;;26.45;7.13;;;0.20;99.90;;;;;;5018500;28;20021;-78
2023/12/01 04:33:02;;;;;;;24.50;6.53;;;0.20;99.90;;;;;;5018385;28;20029;-78
2023/12/01 04:35:30;;;;;;;29.98;6.82;;;0.20;99.90;;;;;;5018388;28;20022;-78
2023/12/01 04:37:58;;;;;;;27.15;6.97;;;0.20;99.90;;;;;;5018217;28;20490;-77
2023/12/01 04:40:24;;;;;;;27.23;7.03;;;0.30;99.90;;;;;;5016905;28;20481;-78
2023/12/01 04:42:51;;;;;;;30.75;7.85;;;0.20;99.90;;;;;;5033412;28;20073;-78
2023/12/01 04:45:19;;;;;;;27.65;8.00;;;0.20;99.90;;;;;;5018114;28;20397;-78
2023/12/01 04:47:50;;;;;;;26.27;7.40;;;0.20;99.90;;;;;;5018245;28;20121;-78
2023/12/01 04:50:18;;;;;;;26.40;6.93;;;0.20;99.90;;;;;;5017276;28;20019;-79
2023/12/01 04:52:46;;;;;;;28.63;8.18;;;0.20;99.90;;;;;;5018841;28;20048;-79
2023/12/01 04:55:14;;;;;;;28.73;7.77;;;0.20;99.90;;;;;;5016507;28;20402;-79
2023/12/01 04:57:44;;;;;;;32.63;7.87;;;0.20;99.90;;;;;;5016857;28;20033;-79
2023/12/01 05:00:21;;;;;;;29.98;8.18;;;0.30;99.90;;;;;;5018279;28;20320;-79
2023/12/01 05:02:55;;;;;;;27.37;7.80;;;0.30;99.90;;;;;;5017185;28;20050;-79
2023/12/01 05:05:22;;;;;;;30.45;8.57;;;0.30;99.90;;;;;;5017026;28;20068;-79
2023/12/01 05:07:50;;;;;;;30.85;8.93;;;0.30;99.90;;;;;;5017165;28;20029;-79
2023/12/01 05:10:17;;;;;;;28.53;7.30;;;0.30;99.90;;;;;;5018038;28;20053;-79
2023/12/01 05:12:44;;;;;;;28.90;8.50;;;0.30;99.90;;;;;;5018491;28;20021;-79
2023/12/01 05:15:16;;;;;;;30.30;7.78;;;0.30;99.90;;;;;;5016922;28;20018;-79
2023/12/01 05:17:44;;;;;;;27.60;9.13;;;0.30;99.90;;;;;;5018531;28;20072;-79
2023/12/01 05:20:16;;;;;;;29.73;9.30;;;0.40;99.90;;;;;;5016294;28;20014;-79
2023/12/01 05:23:01;;;;;;;30.75;7.85;;;0.30;99.90;;;;;;5018328;28;20037;-79
2023/12/01 05:25:32;;;;;;;35.17;8.75;;;0.40;99.90;;;;;;5033119;28;20026;-79
2023/12/01 05:27:59;;;;;;;33.55;9.07;;;0.40;99.90;;;;;;5017380;28;20026;-79
2023/12/01 05:30:26;;;;;;;27.55;7.95;;;0.40;99.90;;;;;;5016479;28;20489;-79
2023/12/01 05:32:53;;;;;;;27.88;8.43;;;0.40;99.90;;;;;;5016803;28;20385;-79
2023/12/01 05:35:20;;;;;;;34.00;9.85;;;0.50;99.90;;;;;;5016420;28;20504;-79
2023/12/01 05:37:48;;;;;;;30.77;9.27;;;0.50;99.90;;;;;;5017867;28;20469;-79
2023/12/01 05:40:16;;;;;;;27.05;8.43;;;0.50;99.90;;;;;;5032210;28;20481;-79
2023/12/01 05:42:43;;;;;;;30.90;8.43;;;0.50;99.90;;;;;;5017508;28;20477;-79
2023/12/01 05:45:11;;;;;;;31.42;9.00;;;0.50;99.90;;;;;;5016272;28;20022;-79
2023/12/01 05:47:42;;;;;;;31.35;10.07;;;0.50;99.90;;;;;;5016376;28;20548;-79
2023/12/01 05:50:12;;;;;;;28.88;8.15;;;0.30;99.90;;;;;;5032754;28;20037;-79
2023/12/01 05:52:38;;;;;;;30.75;8.60;;;0.50;99.90;;;;;;5016246;28;20113;-79
2023/12/01 05:55:10;;;;;;;31.33;9.32;;;0.50;99.90;;;;;;5017654;28;20446;-79
2023/12/01 05:57:36;;;;;;;30.95;8.43;;;0.50;99.90;;;;;;5017616;28;20026;-79
2023/12/01 06:00:02;;;;;;;31.02;8.90;;;0.50;99.90;;;;;;5016044;28;20136;-79
2023/12/01 06:02:28;;;;;;;33.13;8.10;;;0.50;99.90;;;;;;5017110;28;20041;-79
2023/12/01 06:04:57;;;;;;;31.88;8.73;;;0.40;99.90;;;;;;5015789;28;20088;-79
2023/12/01 06:07:23;;;;;;;36.10;8.85;;;0.50;99.90;;;;;;5015705;28;20014;-79
2023/12/01 06:09:48;;;;;;;31.65;7.90;;;0.40;99.90;;;;;;5016714;28;20040;-79
2023/12/01 06:12:14;;;;;;;32.15;8.73;;;0.40;99.90;;;;;;5015777;28;20409;-79
2023/12/01 06:14:39;;;;;;;31.40;9.15;;;0.50;99.90;;;;;;5015069;28;20026;-79
2023/12/01 06:17:07;;;;;;;29.58;8.93;;;0.40;99.90;;;;;;5015655;28;20096;-79
2023/12/01 06:19:32;;;;;;;28.20;8.68;;;0.40;99.90;;;;;;5015171;28;20037;-79
2023/12/01 06:21:58;;;;;;;34.72;9.07;;;0.40;99.90;;;;;;5016818;28;20022;-79
2023/12/01 06:24:24;;;;;;;28.60;8.73;;;0.50;99.90;;;;;;5015917;28;20496;-79
2023/12/01 06:26:52;;;;;;;29.17;8.50;;;0.40;99.90;;;;;;5017228;28;20029;-79
2023/12/01 06:29:18;;;;;;;31.77;8.30;;;0.40;99.90;;;;;;5016698;28;20022;-79
2023/12/01 06:31:44;;;;;;;28.80;7.90;;;0.40;99.90;;;;;;5014350;28;20478;-79
2023/12/01 06:34:10;;;;;;;28.00;8.27;;;0.40;99.90;;;;;;5014673;28;20109;-79
2023/12/01 06:36:35;;;;;;;31.88;8.82;;;0.40;99.90;;;;;;5015261;28;20474;-79
2023/12/01 06:39:01;;;;;;;34.00;8.45;;;0.30;99.90;;;;;;5015027;28;20014;-79
2023/12/01 06:41:26;;;;;;;30.40;8.55;;;0.40;99.90;;;;;;5016435;28;20433;-80
2023/12/01 06:43:53;;;;;;;30.85;9.60;;;0.40;99.90;;;;;;5015846;28;20049;-80
2023/12/01 06:46:18;;;;;;;24.50;8.70;;;0.40;99.90;;;;;;5016096;28;20033;-79
2023/12/01 06:48:44;;;;;;;31.60;8.38;;;0.40;99.90;;;;;;5014775;28;20030;-80
2023/12/01 06:51:09;;;;;;;30.02;8.60;;;0.40;99.90;;;;;;5016184;28;20030;-79
2023/12/01 06:53:35;;;;;;;32.58;8.63;;;0.40;99.90;;;;;;5014700;28;20485;-79
2023/12/01 06:56:02;;;;;;;31.70;8.32;;;0.30;99.90;;;;;;5016928;28;20133;-79
2023/12/01 06:58:28;;;;;;;30.23;8.75;;;0.40;99.90;;;;;;5015299;28;20022;-79
2023/12/01 07:00:56;;;;;;;29.35;7.78;;;0.30;99.90;;;;;;5014872;28;20075;-79
2023/12/01 07:03:22;;;;;;;32.88;9.35;;;0.40;99.90;;;;;;5015522;28;20088;-80
2023/12/01 07:05:51;;;;;;;29.05;8.82;;;;;;;;;;5014724;28;20497;-79
2023/12/01 07:08:17;;;;;;;;;;;0.40;99.90;;;;;;5031613;28;20025;-79
2023/12/01 07:10:43;;;;;;;29.23;7.05;;;0.40;99.90;;;;;;5014723;28;19913;-79
2023/12/01 07:13:09;;;;;;;30.77;9.27;;;0.40;99.90;;;;;;5013916;28;20049;-79
2023/12/01 07:15:37;;;;;;;30.90;8.25;;;0.40;99.90;;;;;;5016002;28;20029;-79
2023/12/01 07:18:04;;;;;;;34.58;9.85;;;0.40;99.90;;;;;;5014295;28;20034;-79
2023/12/01 07:20:33;;;;;;;32.38;8.75;;;0.40;99.90;;;;;;5013961;28;20494;-79
2023/12/01 07:22:59;;;;;;;30.83;8.25;;;0.40;99.90;;;;;;5015637;28;20022;-79
2023/12/01 07:25:25;;;;;;;31.90;10.18;;;0.40;99.90;;;;;;5014649;28;20028;-79
2023/12/01 07:27:56;;;;;;;29.55;8.68;;;0.40;99.90;;;;;;5014829;28;20022;-79
2023/12/01 07:30:22;;;;;;;30.60;9.30;;;0.40;99.90;;;;;;5014379;28;20584;-79
2023/12/01 07:32:49;;;;;;;35.42;9.80;;;0.40;99.90;;;;;;5016035;28;20021;-79
2023/12/01 07:35:15;;;;;;;35.13;9.57;;;0.40;99.90;;;;;;5014521;28;20029;-79
2023/12/01 07:37:42;;;;;;;33.22;9.43;;;0.40;99.90;;;;;;5014438;28;20397;-79
2023/12/01 07:40:12;;;;;;;33.53;10.07;;;0.50;99.90;;;;;;5014792;28;20025;-80
2023/12/01 07:42:38;;;;;;;28.73;8.95;;;;;;;;;;5016231;28;20030;-79
2023/12/01 07:45:05;;;;;;;40.70;8.95;;;0.40;99.90;;;;;;5030729;28;20028;-78
2023/12/01 07:47:30;;;;;;;31.80;8.50;;;0.50;99.90;;;;;;5014759;28;20022;-78
2023/12/01 07:49:56;;;;;;;31.13;8.07;;;0.40;99.90;;;;;;5015757;28;20351;-77
2023/12/01 07:52:22;;;;;;;31.33;7.93;;;0.40;99.90;;;;;;5014787;28;20031;-75
2023/12/01 07:54:47;;;;;;;32.70;8.00;;;0.40;99.90;;;;;;5014776;28;20513;-78
2023/12/01 07:57:13;;;;;;;30.38;8.10;;;0.50;99.90;;;;;;5013425;28;20046;-78
2023/12/01 07:59:38;;;;;;;29.63;8.80;;;0.40;99.90;;;;;;5013928;28;20040;-77
2023/12/01 08:02:04;;;;;;;25.60;7.90;;;0.50;99.90;;;;;;5014878;28;20466;-76
2023/12/01 08:04:30;;;;;;;26.90;7.05;;;0.40;99.90;;;;;;5014443;28;20072;-77
2023/12/01 08:06:56;;;;;;;29.13;7.75;;;0.40;99.90;;;;;;5015519;28;20080;-77
2023/12/01 08:09:25;;;;;;;28.67;8.13;;;0.40;99.90;;;;;;5014100;28;20022;-77
2023/12/01 08:11:50;;;;;;;27.23;7.35;;;1.30;99.90;;;;;;5012982;28;20264;-78
2023/12/01 08:14:16;;;;;;;22.33;5.90;;;0.50;99.90;;;;;;5013155;28;20026;-79
2023/12/01 08:16:44;;;;;;;24.77;7.50;;;2.40;99.90;;;;;;5013118;28;20029;-78
2023/12/01 08:19:10;;;;;;;26.23;6.82;;;0.50;99.90;;;;;;5013145;28;20022;-78
2023/12/01 08:21:38;;;;;;;29.27;7.43;;;0.60;99.90;;;;;;5014536;28;20532;-78
2023/12/01 08:24:04;;;;;;;31.88;7.85;;;0.60;99.90;;;;;;5013439;28;20025;-78
2023/12/01 08:26:31;;;;;;;22.17;5.80;;;0.60;99.90;;;;;;5014013;28;20096;-78
2023/12/01 08:28:57;;;;;;;26.27;7.03;;;0.60;99.90;;;;;;5014476;28;20022;-78
2023/12/01 08:31:23;;;;;;;25.55;6.85;;;0.60;99.90;;;;;;5012632;28;20069;-78
2023/12/01 08:33:49;;;;;;;24.02;6.55;;;0.60;99.90;;;;;;5013626;28;20022;-78
2023/12/01 08:36:14;;;;;;;21.70;5.85;;;0.60;99.90;;;;;;5014691;28;20068;-78
2023/12/01 08:38:44;;;;;;;28.55;5.93;;;;;;;;;;5012243;28;20398;-78
2023/12/01 08:41:09;;;;;;;20.55;5.93;;;0.60;99.90;;;;;;5013582;28;20374;-79
2023/12/01 08:43:35;;;;;;;27.58;6.78;;;0.60;99.90;;;;;;5013945;28;20033;-78
2023/12/01 08:46:02;;;;;;;23.73;6.32;;;1.20;99.90;;;;;;5014383;28;20072;-78
2023/12/01 08:48:28;;;;;;;22.20;6.13;;;0.70;99.90;;;;;;5012511;28;20482;-78
2023/12/01 08:50:53;;;;;;;23.77;5.63;;;1.00;99.90;;;;;;5012558;28;20022;-78
2023/12/01 08:53:22;;;;;;;22.35;5.72;;;0.70;99.90;;;;;;5014114;28;20057;-78
2023/12/01 08:55:48;;;;;;;19.02;4.90;;;0.70;99.90;;;;;;5014530;28;20030;-78
2023/12/01 08:58:13;;;;;;;23.58;5.70;;;0.70;99.90;;;;;;5016210;28;20076;-78
2023/12/01 09:00:40;;;;;;;21.38;5.55;;;0.70;99.90;;;;;;5018033;28;20030;-78
2023/12/01 09:03:06;;;;;;;23.77;5.50;;;0.70;99.90;;;;;;5018030;28;20026;-77
2023/12/01 09:05:32;;;;;;;23.60;5.55;;;0.60;99.90;;;;;;5016358;28;20064;-78
2023/12/01 09:07:58;;;;;;;24.45;6.30;;;0.70;99.90;;;;;;5017003;28;20029;-78
2023/12/01 09:10:23;;;;;;;20.38;5.78;;;0.70;99.90;;;;;;5015143;28;20096;-78
2023/12/01 09:12:50;;;;;;;21.35;4.97;;;0.80;99.90;;;;;;5017078;28;20037;-78
2023/12/01 09:15:15;;;;;;;20.20;4.70;;;0.80;99.90;;;;;;5017005;28;20076;-78
2023/12/01 09:17:41;;;;;;;25.88;5.78;;;0.90;99.90;;;;;;5016020;28;20030;-78
2023/12/01 09:20:09;;;;;;;18.85;4.30;;;0.90;99.90;;;;;;5016803;28;20022;-78
2023/12/01 09:22:38;;;;;;;19.73;4.53;;;0.90;99.90;;;;;;5017391;28;20072;-78
2023/12/01 09:25:04;;;;;;;20.65;5.28;;;0.90;99.90;;;;;;5015306;28;20501;-78
2023/12/01 09:27:30;;;;;;;22.27;5.78;;;0.90;99.90;;;;;;5016767;28;20021;-78
2023/12/01 09:29:56;;;;;;;26.73;6.20;;;0.90;99.90;;;;;;5015422;28;20025;-78
2023/12/01 09:32:21;;;;;;;25.42;5.20;;;0.90;99.90;;;;;;5015414;28;20067;-78
2023/12/01 09:34:47;;;;;;;22.55;5.45;;;1.00;99.90;;;;;;5016600;28;20048;-78
2023/12/01 09:37:13;;;;;;;19.42;4.88;;;1.10;99.90;;;;;;5016712;28;20033;-78
2023/12/01 09:39:39;;;;;;;19.08;4.90;;;1.10;99.90;;;;;;5016432;28;20417;-78
2023/12/01 09:42:06;;;;;;;20.40;4.50;;;1.10;99.90;;;;;;5031070;28;20021;-78
2023/12/01 09:44:32;;;;;;;18.27;4.82;;;1.20;99.90;;;;;;5014375;28;20021;-78
2023/12/01 09:47:00;;;;;;;19.45;4.95;;;1.20;99.90;;;;;;5014708;28;20076;-78
2023/12/01 09:49:30;;;;;;;17.57;4.63;;;1.30;99.90;;;;;;5016247;28;20114;-78
2023/12/01 09:51:55;;;;;;;22.45;5.47;;;1.30;99.90;;;;;;5016586;28;20725;-78
2023/12/01 09:54:21;;;;;;;18.08;4.25;;;1.20;99.90;;;;;;5014437;28;20077;-78
2023/12/01 09:56:46;;;;;;;22.90;5.22;;;1.30;99.90;;;;;;5014662;28;20030;-78
2023/12/01 09:59:16;;;;;;;17.55;4.80;;;1.30;99.90;;;;;;5015613;28;20053;-78
2023/12/01 10:01:41;;;;;;;18.15;4.50;;;1.30;99.90;;;;;;5014964;28;20083;-78
2023/12/01 10:04:08;;;;;;;21.25;5.05;;;1.20;99.90;;;;;;5015380;28;20073;-78
2023/12/01 10:06:37;;;;;;;18.13;4.35;;;1.30;99.90;;;;;;4995050;28;20017;-78
2023/12/01 10:09:03;;;;;;;;;;;1.30;99.90;;;;;;4995379;28;20038;-78
2023/12/01 10:11:28;;;;;;;15.85;3.75;;;1.30;99.90;;;;;;4995250;28;20384;-78
2023/12/01 10:13:54;;;;;;;15.73;4.40;;;1.30;99.90;;;;;;4996288;28;20034;-78
2023/12/01 10:16:23;;;;;;;20.98;5.43;;;1.30;99.90;;;;;;5000964;28;20026;-78
2023/12/01 10:18:55;;;;;;;19.10;4.50;;;1.30;99.90;;;;;;5001116;28;20031;-78
2023/12/01 10:21:21;;;;;;;18.50;5.28;;;1.20;99.90;;;;;;5001880;28;20026;-78
2023/12/01 10:23:46;;;;;;;17.77;4.53;;;1.30;99.90;;;;;;5000470;28;20049;-78
2023/12/01 10:26:13;;;;;;;19.75;4.97;;;1.30;99.90;;;;;;5010693;28;20053;-78
2023/12/01 10:28:40;;;;;;;18.88;5.82;;;1.40;99.90;;;;;;4995957;28;20069;-77
2023/12/01 10:31:06;;;;;;;17.10;4.82;;;1.40;99.90;;;;;;5015108;28;20061;-78
2023/12/01 10:33:35;;;;;;;16.35;4.97;;;1.50;99.90;;;;;;5014225;28;20022;-77
2023/12/01 10:36:03;;;;;;;14.88;4.75;;;1.50;99.90;;;;;;5015425;28;20029;-77
2023/12/01 10:38:30;;;;;;;20.88;4.75;;;1.60;99.90;;;;;;5013874;28;20036;-77
2023/12/01 10:40:56;;;;;;;21.27;4.65;;;1.60;99.90;;;;;;5015171;28;20025;-77
2023/12/01 10:43:21;;;;;;;16.80;4.93;;;1.70;99.90;;;;;;5015771;28;20025;-77
2023/12/01 10:45:49;;;;;;;20.00;4.40;;;1.80;99.90;;;;;;5015507;28;20033;-77
2023/12/01 10:48:17;;;;;;;18.52;5.40;;;1.90;99.90;;;;;;5014123;28;20109;-77
2023/12/01 10:50:43;;;;;;;21.35;4.80;;;2.00;99.90;;;;;;5013928;28;20048;-77
2023/12/01 10:53:10;;;;;;;20.73;5.38;;;2.10;99.90;;;;;;5015012;28;20026;-77
2023/12/01 10:55:36;;;;;;;17.88;4.85;;;2.20;99.90;;;;;;5015520;28;20026;-77
2023/12/01 10:58:06;;;;;;;18.83;4.03;;;2.40;99.90;;;;;;5013321;28;20390;-76
2023/12/01 11:00:31;;;;;;;17.33;4.00;;;2.50;99.90;;;;;;5011790;28;20048;-76
2023/12/01 11:03:00;;;;;;;16.67;4.60;;;2.60;99.90;;;;;;5013669;28;20117;-76
2023/12/01 11:05:30;;;;;;;21.73;5.55;;;2.60;99.90;;;;;;5013526;28;20029;-76
2023/12/01 11:08:16;;;;;;;14.70;3.80;;;2.80;99.90;;;;;;5014695;28;20022;-76
2023/12/01 11:11:16;;;;;;;17.27;4.60;;;2.90;99.90;;;;;;5014444;28;20034;-76
2023/12/01 11:13:58;;;;;;;16.50;4.07;;;3.00;99.90;;;;;;5013070;28;20026;-76
2023/12/01 11:16:25;;;;;;;18.55;4.88;;;3.00;99.90;;;;;;5014170;28;20040;-76
2023/12/01 11:18:51;;;;;;;16.33;4.45;;;3.10;99.90;;;;;;5010118;28;20053;-76
2023/12/01 11:21:17;;;;;;;17.35;5.20;;;3.10;99.90;;;;;;4994390;28;20065;-75
2023/12/01 11:23:43;;;;;;;14.30;3.67;;;3.00;99.90;;;;;;4994781;28;20053;-76
2023/12/01 11:26:10;;;;;;;13.15;2.75;;;2.90;99.90;;;;;;4993593;28;20359;-75
2023/12/01 11:31:21;;;;;;;15.80;4.05;;;2.70;99.90;;;;;;5005219;28;20050;-76
2023/12/01 11:33:52;;;;;;;13.90;3.17;;;2.60;99.90;;;;;;5003770;28;20026;-76
2023/12/01 11:36:47;;;;;;;14.73;3.95;;;2.40;99.90;;;;;;5010192;28;20033;-76
2023/12/01 11:41:42;;;;;;;12.85;3.60;;;2.20;99.90;;;;;;5003791;28;20398;-76
2023/12/01 11:44:32;;;;;;;11.38;3.35;;;2.30;99.90;;;;;;5012671;28;20026;-77
2023/12/01 11:47:00;;;;;;;11.95;3.47;;;2.30;99.90;;;;;;5013134;28;20045;-77
2023/12/01 11:49:32;;;;;;;16.35;4.32;;;2.40;99.90;;;;;;5014256;28;20010;-77
2023/12/01 11:51:59;;;;;;;17.25;3.40;;;2.50;99.90;;;;;;5013061;28;20056;-77
2023/12/01 11:54:26;;;;;;;16.80;4.03;;;2.60;99.90;;;;;;5012878;28;20021;-76
2023/12/01 11:56:53;;;;;;;15.15;3.55;;;2.60;99.90;;;;;;5013198;28;20058;-76
2023/12/01 11:59:19;;;;;;;13.93;4.18;;;2.80;99.90;;;;;;5014199;28;20029;-76
2023/12/01 12:01:52;;;;;;;11.15;3.10;;;2.90;99.90;;;;;;5012803;28;20018;-76
2023/12/01 12:04:17;;;;;;;17.60;4.30;;;2.90;99.90;;;;;;5013734;28;20029;-76
2023/12/01 12:06:47;;;;;;;13.35;4.05;;;3.10;99.90;;;;;;5012802;28;20030;-76
2023/12/01 12:09:19;;;;;;;14.30;3.58;;;3.10;99.90;;;;;;5013783;28;20025;-76
2023/12/01 12:11:52;;;;;;;11.38;3.30;;;3.20;99.90;;;;;;5014131;28;20482;-76
2023/12/01 12:14:24;;;;;;;14.07;4.30;;;3.20;99.90;;;;;;5013992;28;20026;-76
2023/12/01 12:16:51;;;;;;;16.08;3.85;;;3.30;99.90;;;;;;5014152;28;20075;-75
2023/12/01 12:19:17;;;;;;;13.13;3.38;;;3.20;99.90;;;;;;5013698;28;20078;-76
2023/12/01 12:21:43;;;;;;;10.10;3.28;;;3.30;99.90;;;;;;5010742;28;20049;-76
2023/12/01 12:24:10;;;;;;;10.95;3.13;;;3.30;99.90;;;;;;5012370;28;20022;-76
2023/12/01 12:26:36;;;;;;;14.93;2.92;;;3.30;99.90;;;;;;5013982;28;20385;-75
2023/12/01 12:29:04;;;;;;;10.40;2.85;;;3.10;99.90;;;;;;5013317;28;20014;-76
2023/12/01 12:31:32;;;;;;;12.57;3.33;;;2.90;99.90;;;;;;5014938;28;20038;-76
2023/12/01 12:34:04;;;;;;;12.98;3.17;;;2.80;99.90;;;;;;5017752;28;20026;-75
2023/12/01 12:36:31;;;;;;;11.63;3.03;;;2.60;99.90;;;;;;5016331;28;20431;-76
2023/12/01 12:39:03;;;;;;;10.82;2.95;;;2.70;99.90;;;;;;5004608;28;20105;-75
2023/12/01 12:41:31;;;;;;;16.00;3.33;;;2.70;99.90;;;;;;5010781;28;20049;-75
2023/12/01 12:44:01;;;;;;;10.80;3.10;;;2.70;99.90;;;;;;4997101;28;20053;-76
2023/12/01 12:46:31;;;;;;;14.98;3.72;;;2.40;99.90;;;;;;4996553;28;20030;-76
2023/12/01 12:48:58;;;;;;;11.25;2.67;;;2.30;99.90;;;;;;4996620;28;20383;-75
2023/12/01 12:51:25;;;;;;;12.43;3.38;;;2.30;99.90;;;;;;4998320;28;20026;-76
2023/12/01 12:53:53;;;;;;;13.68;3.28;;;2.30;99.90;;;;;;4997800;28;20058;-76